Interlochen, Michigan
Current Conditions -  °F | °C
As of 4:53 PM on Monday 20 Oct 2014 (Local Time) from KTVC Reporting Station
Overcast Overcast  
Wind Chill: 45°   Ceiling: 1700
Heat Index: 49°   Visibility: 10mi
Dew Point: 44°   Wind: 10mph
Humidity: 83%   Direction: 310°NW
Pressure: 29.84"   Gusts: NA
Location:  44.64°N, 85.77°W
Report Text: KTVC 202053Z 31009KT 10SM FEW012 OVC017 09/07 A2984 RMK AO2 SLP108 T00940067 53012
Loading
Personal Weather Stations






























Interactive Weather Map
Tropical Storm Tracking
New forecast layout! Learn more

10-Day Weather Forecast

Advertisements
Track Severe Weather on mobile